Terminal Aerodrome Forecast
Issued by NWS

Home | Current Version | Previous Version | Text Only | Print | Product List | Glossary On
Versions: 1 2 3 4 5 6 7 8 9 10 11 12 13 14 15
000
FTUS44 KLZK 201137
TAFADF
TAF
KADF 201137Z 2012/2112 VRB03KT P6SM OVC015
     FM201500 17007KT P6SM OVC025
     FM210200 16008KT P6SM OVC015
     FM210800 17008KT 5SM BR OVC007=

USA.gov is the U.S. government's official web portal to all federal, state and local government web resources and services.